createdAt,value
2022-10-22T00:00:47.308Z,5.30
2022-10-22T00:03:31.437Z,6.05
2022-10-22T00:06:14.134Z,5.95
2022-10-22T00:08:56.882Z,5.95
2022-10-22T00:11:39.533Z,4.78
2022-10-22T00:14:22.490Z,5.18
2022-10-22T00:17:07.007Z,6.10
2022-10-22T00:19:55.281Z,5.68
2022-10-22T00:22:37.872Z,5.25
2022-10-22T00:25:20.537Z,5.20
2022-10-22T00:28:03.533Z,5.47
2022-10-22T00:30:46.240Z,4.90
2022-10-22T00:33:30.420Z,4.63
2022-10-22T00:36:14.560Z,5.00
2022-10-22T00:38:57.361Z,5.00
2022-10-22T00:41:40.061Z,4.90
2022-10-22T00:44:41.441Z,5.43
2022-10-22T00:47:24.645Z,4.68
2022-10-22T00:50:08.829Z,6.30
2022-10-22T00:52:53.242Z,5.40
2022-10-22T00:55:36.194Z,4.75
2022-10-22T00:58:21.227Z,5.35
2022-10-22T01:01:04.598Z,5.72
2022-10-22T01:03:47.283Z,4.68
2022-10-22T01:06:31.113Z,4.63
2022-10-22T01:09:18.037Z,5.00
2022-10-22T01:12:04.127Z,5.20
2022-10-22T01:14:51.751Z,5.80
2022-10-22T01:17:37.073Z,5.80
2022-10-22T01:20:27.007Z,5.90
2022-10-22T01:23:17.854Z,5.88
2022-10-22T01:26:07.260Z,6.15
2022-10-22T01:28:56.178Z,5.90
2022-10-22T01:31:40.838Z,5.75
2022-10-22T01:34:24.661Z,5.30
2022-10-22T01:37:07.891Z,5.45
2022-10-22T01:39:50.696Z,6.22
2022-10-22T01:42:33.272Z,6.35
2022-10-22T01:45:17.129Z,6.05
2022-10-22T01:48:04.539Z,5.63
2022-10-22T01:50:57.094Z,5.55
2022-10-22T01:53:42.765Z,6.22
2022-10-22T01:56:31.978Z,5.70
2022-10-22T01:59:17.318Z,5.05
2022-10-22T02:02:05.667Z,4.75
2022-10-22T02:04:50.767Z,4.25
2022-10-22T02:07:35.646Z,4.30
2022-10-22T02:10:18.648Z,4.93
2022-10-22T02:13:02.255Z,4.85
2022-10-22T02:15:46.605Z,3.75
2022-10-22T02:18:36.294Z,4.43
2022-10-22T02:21:21.465Z,4.72
2022-10-22T02:24:04.209Z,3.13
2022-10-22T02:26:49.348Z,3.20
2022-10-22T02:29:36.161Z,3.67
2022-10-22T02:32:21.168Z,3.22
2022-10-22T02:35:05.658Z,4.07
2022-10-22T02:37:48.620Z,4.25
2022-10-22T02:40:31.941Z,4.10
2022-10-22T02:43:14.757Z,5.35
2022-10-22T02:45:57.419Z,4.50
2022-10-22T02:48:40.069Z,4.68
2022-10-22T02:51:24.018Z,4.13
2022-10-22T02:54:06.641Z,5.47
2022-10-22T02:56:49.276Z,5.78
2022-10-22T02:59:31.878Z,4.65
2022-10-22T03:02:14.504Z,4.90
2022-10-22T03:04:57.116Z,5.50
2022-10-22T03:07:41.332Z,5.57
2022-10-22T03:10:24.163Z,5.32
2022-10-22T03:13:06.767Z,4.80
2022-10-22T03:15:49.772Z,5.50
2022-10-22T03:18:32.409Z,5.82
2022-10-22T03:21:21.950Z,6.57
2022-10-22T03:24:08.868Z,5.88
2022-10-22T03:26:52.907Z,3.72
2022-10-22T03:29:37.358Z,4.38
2022-10-22T03:32:20.337Z,4.95
2022-10-22T03:35:03.034Z,3.80
2022-10-22T03:37:45.735Z,4.57
2022-10-22T03:40:29.905Z,4.28
2022-10-22T03:43:12.792Z,5.18
2022-10-22T03:45:55.408Z,4.43
2022-10-22T03:48:38.201Z,4.07
2022-10-22T03:51:20.818Z,2.92
2022-10-22T03:54:03.539Z,2.25
2022-10-22T03:56:47.469Z,2.63
2022-10-22T03:59:30.111Z,2.25
2022-10-22T04:02:13.749Z,2.63
2022-10-22T04:04:56.358Z,3.20
2022-10-22T04:07:39.356Z,3.08
2022-10-22T04:10:22.089Z,3.05
2022-10-22T04:13:06.053Z,2.72
2022-10-22T04:15:48.762Z,2.78
2022-10-22T04:18:31.365Z,2.40
2022-10-22T04:21:15.080Z,2.10
2022-10-22T04:23:57.703Z,2.20
2022-10-22T04:26:40.369Z,2.42
2022-10-22T04:29:24.488Z,3.65
2022-10-22T04:32:07.167Z,3.63
2022-10-22T04:34:49.891Z,3.05
2022-10-22T04:37:32.947Z,3.88
2022-10-22T04:40:15.631Z,4.07
2022-10-22T04:42:58.321Z,4.50
2022-10-22T04:45:42.268Z,3.90
2022-10-22T04:48:24.926Z,4.82
2022-10-22T04:51:09.020Z,5.03
2022-10-22T04:53:51.688Z,5.30
2022-10-22T04:56:34.370Z,5.05
2022-10-22T04:59:17.207Z,5.20
2022-10-22T05:02:01.250Z,4.82
2022-10-22T05:04:44.961Z,5.07
2022-10-22T05:07:27.664Z,5.03
2022-10-22T05:10:10.814Z,4.30
2022-10-22T05:12:53.529Z,4.60
2022-10-22T05:15:36.216Z,5.18
2022-10-22T05:18:22.517Z,5.20
2022-10-22T05:21:05.704Z,4.75
2022-10-22T05:23:49.529Z,4.47
2022-10-22T05:26:32.177Z,4.28
2022-10-22T05:29:15.045Z,4.50
2022-10-22T05:31:57.625Z,5.10
2022-10-22T05:34:41.556Z,4.35
2022-10-22T05:37:24.159Z,4.43
2022-10-22T05:40:19.289Z,5.20
2022-10-22T05:43:09.335Z,5.45
2022-10-22T05:45:51.964Z,5.88
2022-10-22T05:48:34.909Z,5.30
2022-10-22T05:51:19.541Z,5.45
2022-10-22T05:54:02.894Z,5.50
2022-10-22T05:56:45.496Z,5.85
2022-10-22T05:59:28.096Z,5.90
2022-10-22T06:02:10.860Z,4.82
2022-10-22T06:04:53.583Z,5.35
2022-10-22T06:07:37.567Z,5.53
2022-10-22T06:10:21.559Z,5.15
2022-10-22T06:13:08.035Z,5.70
2022-10-22T06:15:50.834Z,5.28
2022-10-22T06:18:34.401Z,5.32
2022-10-22T06:21:17.645Z,6.18
2022-10-22T06:24:02.053Z,6.57
2022-10-22T06:26:44.990Z,6.25
2022-10-22T06:29:27.686Z,5.70
2022-10-22T06:32:13.266Z,6.20
2022-10-22T06:34:55.907Z,5.25
2022-10-22T06:37:38.648Z,5.80
2022-10-22T06:40:23.249Z,4.85
2022-10-22T06:43:06.465Z,4.25
2022-10-22T06:45:49.090Z,3.95
2022-10-22T06:48:32.049Z,4.53
2022-10-22T06:51:14.791Z,4.30
2022-10-22T06:53:58.068Z,4.30
2022-10-22T06:56:42.080Z,5.10
2022-10-22T06:59:24.820Z,4.47
2022-10-22T07:02:07.451Z,5.00
2022-10-22T07:04:50.072Z,4.75
2022-10-22T07:07:32.709Z,4.80
2022-10-22T07:10:15.451Z,4.22
2022-10-22T07:12:59.758Z,4.90
2022-10-22T07:15:42.497Z,4.72
2022-10-22T07:18:25.162Z,5.38
2022-10-22T07:21:08.460Z,4.90
2022-10-22T07:23:51.211Z,5.05
2022-10-22T07:26:33.806Z,4.85
2022-10-22T07:29:17.837Z,4.93
2022-10-22T07:32:00.460Z,4.70
2022-10-22T07:34:43.992Z,5.55
2022-10-22T07:37:28.254Z,4.88
2022-10-22T07:40:11.247Z,5.15
2022-10-22T07:42:53.885Z,5.00
2022-10-22T07:45:37.969Z,5.43
2022-10-22T07:48:20.648Z,4.90
2022-10-22T07:51:03.946Z,5.20
2022-10-22T07:53:46.607Z,6.10
2022-10-22T07:56:29.234Z,6.10
2022-10-22T07:59:11.808Z,5.55
2022-10-22T08:01:55.845Z,6.05
2022-10-22T08:04:38.628Z,5.70
2022-10-22T08:07:21.344Z,6.00
2022-10-22T08:10:04.063Z,6.32
2022-10-22T08:12:46.836Z,6.43
2022-10-22T08:15:31.035Z,6.65
2022-10-22T08:18:15.095Z,5.60
2022-10-22T08:20:58.201Z,6.38
2022-10-22T08:23:41.012Z,6.05
2022-10-22T08:26:23.600Z,6.18
2022-10-22T08:29:06.441Z,6.63
2022-10-22T08:31:49.224Z,6.70
2022-10-22T08:34:33.196Z,6.45
2022-10-22T08:37:17.154Z,6.95
2022-10-22T08:39:59.780Z,6.63
2022-10-22T08:42:53.832Z,7.13
2022-10-22T08:45:41.490Z,7.22
2022-10-22T08:48:33.918Z,7.40
2022-10-22T08:51:18.874Z,7.47
2022-10-22T08:54:09.910Z,7.88
2022-10-22T08:57:00.473Z,8.30
2022-10-22T08:59:47.039Z,8.70
2022-10-22T09:02:34.952Z,8.18
2022-10-22T09:05:24.660Z,8.55
2022-10-22T09:08:11.337Z,9.57
2022-10-22T09:10:55.663Z,8.70
2022-10-22T09:13:38.856Z,9.27
2022-10-22T09:16:23.484Z,8.85
2022-10-22T09:19:13.903Z,8.70
2022-10-22T09:22:02.208Z,8.10
2022-10-22T09:24:47.998Z,9.23
2022-10-22T09:27:31.526Z,8.95
2022-10-22T09:30:16.800Z,9.88
2022-10-22T09:33:01.681Z,9.43
2022-10-22T09:35:48.705Z,9.20
2022-10-22T09:38:32.115Z,8.82
2022-10-22T09:41:16.547Z,8.70
2022-10-22T09:43:59.463Z,8.57
2022-10-22T09:46:45.490Z,8.30
2022-10-22T09:49:31.231Z,8.60
2022-10-22T09:52:24.943Z,8.00
2022-10-22T09:55:13.902Z,8.18
2022-10-22T09:57:59.878Z,8.35
2022-10-22T10:00:44.847Z,7.75
2022-10-22T10:03:28.341Z,7.28
2022-10-22T10:06:12.563Z,7.13
2022-10-22T10:08:55.224Z,5.60
2022-10-22T10:11:38.793Z,5.65
2022-10-22T10:14:26.189Z,5.32
2022-10-22T10:17:13.961Z,4.30
2022-10-22T10:20:03.928Z,4.28
2022-10-22T10:22:52.355Z,3.90
2022-10-22T10:25:47.465Z,3.30
2022-10-22T10:28:35.732Z,3.83
2022-10-22T10:31:21.931Z,3.38
2022-10-22T10:34:09.289Z,2.92
2022-10-22T10:36:55.488Z,3.78
2022-10-22T10:39:42.222Z,2.13
2022-10-22T10:42:28.141Z,2.28
2022-10-22T10:45:16.461Z,1.98
2022-10-22T10:48:09.427Z,2.83
2022-10-22T10:50:57.917Z,2.50
2022-10-22T10:53:48.665Z,2.10
2022-10-22T10:56:39.319Z,2.22
2022-10-22T10:59:30.372Z,2.22
2022-10-22T11:02:27.887Z,2.17
2022-10-22T11:05:23.210Z,1.80
2022-10-22T11:08:07.478Z,1.60
2022-10-22T11:10:52.239Z,2.13
2022-10-22T11:13:37.723Z,1.58
2022-10-22T11:16:24.496Z,1.60
2022-10-22T11:19:11.283Z,2.08
2022-10-22T11:22:00.828Z,1.50
2022-10-22T11:24:47.621Z,1.50
2022-10-22T11:27:32.679Z,1.67
2022-10-22T11:30:16.654Z,1.60
2022-10-22T11:33:01.753Z,1.38
2022-10-22T11:35:45.472Z,1.30
2022-10-22T11:38:32.879Z,1.58
2022-10-22T11:41:18.690Z,1.63
2022-10-22T11:44:10.572Z,1.27
2022-10-22T11:46:58.216Z,1.48
2022-10-22T11:49:44.290Z,1.20
2022-10-22T11:52:28.341Z,1.15
2022-10-22T11:55:32.761Z,1.25
2022-10-22T11:58:30.676Z,1.45
2022-10-22T12:01:24.912Z,1.10
2022-10-22T12:04:18.998Z,1.17
2022-10-22T12:07:02.443Z,1.40
2022-10-22T12:12:39.969Z,1.30
2022-10-22T12:15:25.451Z,1.30
2022-10-22T12:18:08.317Z,1.10
2022-10-22T12:20:51.802Z,1.10
2022-10-22T12:23:36.220Z,1.30
2022-10-22T12:29:18.819Z,1.10
2022-10-22T12:32:04.152Z,1.45
2022-10-22T12:34:47.789Z,1.45
2022-10-22T12:37:30.518Z,1.67
2022-10-22T12:40:23.016Z,1.60
2022-10-22T12:43:11.902Z,1.38
2022-10-22T12:45:57.594Z,1.77
2022-10-22T12:48:41.935Z,1.60
2022-10-22T12:51:24.575Z,1.60
2022-10-22T12:54:09.344Z,1.65
2022-10-22T12:56:52.528Z,1.80
2022-10-22T12:59:36.394Z,1.95
2022-10-22T13:02:25.448Z,1.80
2022-10-22T13:05:15.838Z,1.98
2022-10-22T13:08:04.018Z,2.00
2022-10-22T13:10:51.213Z,2.08
2022-10-22T13:13:35.438Z,2.00
2022-10-22T13:16:19.780Z,2.08
2022-10-22T13:19:03.703Z,2.03
2022-10-22T13:21:49.693Z,1.73
2022-10-22T13:24:32.443Z,1.70
2022-10-22T13:27:15.142Z,1.80
2022-10-22T13:29:58.136Z,1.80
2022-10-22T13:32:41.762Z,1.58
2022-10-22T13:35:26.770Z,1.85
2022-10-22T13:38:14.035Z,1.60
2022-10-22T13:40:57.372Z,1.50
2022-10-22T13:43:40.058Z,1.50
2022-10-22T13:46:23.088Z,1.50
2022-10-22T13:49:05.810Z,1.80
2022-10-22T13:51:50.748Z,1.60
2022-10-22T13:54:33.418Z,1.60
2022-10-22T13:57:16.161Z,1.60
2022-10-22T13:59:58.858Z,1.60
2022-10-22T14:02:41.952Z,1.45
2022-10-22T14:05:24.797Z,1.40
2022-10-22T14:08:10.710Z,1.50
2022-10-22T14:10:53.909Z,1.70
2022-10-22T14:13:36.556Z,1.70
2022-10-22T14:16:20.182Z,1.45
2022-10-22T14:19:03.232Z,1.40
2022-10-22T14:21:45.918Z,1.45
2022-10-22T14:24:29.991Z,1.50
2022-10-22T14:27:13.091Z,1.10
2022-10-22T14:29:59.388Z,1.65
2022-10-22T14:32:42.704Z,1.17
2022-10-22T14:35:26.050Z,1.50
2022-10-22T14:38:08.845Z,1.65
2022-10-22T14:40:53.114Z,1.20
2022-10-22T14:43:35.910Z,1.70
2022-10-22T14:46:19.264Z,1.20
2022-10-22T14:49:02.902Z,1.30
2022-10-22T14:51:45.830Z,1.42
2022-10-22T14:54:28.642Z,1.60
2022-10-22T14:57:14.422Z,1.50
2022-10-22T14:59:57.184Z,1.45
2022-10-22T15:02:40.165Z,2.03
2022-10-22T15:05:23.172Z,1.20
2022-10-22T15:08:06.089Z,1.90
2022-10-22T15:10:58.082Z,1.75
2022-10-22T15:13:42.241Z,1.70
2022-10-22T15:16:25.042Z,1.67
2022-10-22T15:19:07.751Z,1.23
2022-10-22T15:21:50.425Z,1.20
2022-10-22T15:24:33.154Z,1.33
2022-10-22T15:27:15.855Z,1.40
2022-10-22T15:30:00.004Z,1.33
2022-10-22T15:32:43.145Z,1.65
2022-10-22T15:35:28.779Z,1.60
2022-10-22T15:38:11.754Z,1.35
2022-10-22T15:41:04.413Z,1.55
2022-10-22T15:43:48.928Z,1.58
2022-10-22T15:46:35.322Z,1.30
2022-10-22T15:49:18.249Z,1.30
2022-10-22T15:52:01.101Z,1.52
2022-10-22T15:54:43.969Z,2.10
2022-10-22T15:57:26.702Z,1.50
2022-10-22T16:00:09.943Z,1.40
2022-10-22T16:02:56.444Z,1.42
2022-10-22T16:05:39.109Z,1.60
2022-10-22T16:08:21.794Z,1.25
2022-10-22T16:11:04.698Z,1.77
2022-10-22T16:13:47.427Z,1.83
2022-10-22T16:16:30.985Z,1.60
2022-10-22T16:19:15.806Z,1.70
2022-10-22T16:21:59.471Z,1.42
2022-10-22T16:24:42.200Z,1.40
2022-10-22T16:27:24.895Z,1.55
2022-10-22T16:30:07.803Z,1.65
2022-10-22T16:32:52.944Z,1.60
2022-10-22T16:35:40.407Z,1.38
2022-10-22T16:38:23.120Z,1.50
2022-10-22T16:41:09.665Z,1.50
2022-10-22T16:43:53.365Z,1.15
2022-10-22T16:46:38.289Z,1.70
2022-10-22T16:49:20.976Z,1.48
2022-10-22T16:52:05.193Z,1.67
2022-10-22T16:54:47.839Z,1.50
2022-10-22T16:57:31.934Z,1.33
2022-10-22T17:00:14.913Z,1.65
2022-10-22T17:02:57.745Z,1.70
2022-10-22T17:05:40.425Z,1.70
2022-10-22T17:08:24.485Z,1.85
2022-10-22T17:11:08.090Z,2.25
2022-10-22T17:13:53.896Z,1.77
2022-10-22T17:16:36.695Z,1.80
2022-10-22T17:19:20.153Z,1.42
2022-10-22T17:22:03.080Z,1.50
2022-10-22T17:24:47.298Z,1.50
2022-10-22T17:27:30.022Z,2.13
2022-10-22T17:30:14.063Z,1.92
2022-10-22T17:32:56.792Z,1.65
2022-10-22T17:35:41.097Z,2.25
2022-10-22T17:38:23.757Z,1.80
2022-10-22T17:41:10.406Z,1.85
2022-10-22T17:43:56.958Z,2.10
2022-10-22T17:46:39.810Z,2.20
2022-10-22T17:49:22.709Z,2.35
2022-10-22T17:52:05.622Z,1.63
2022-10-22T17:54:49.190Z,2.00
2022-10-22T17:57:33.330Z,2.20
2022-10-22T18:03:05.695Z,2.05
2022-10-22T18:05:48.348Z,2.30
2022-10-22T18:08:31.083Z,1.80
2022-10-22T18:11:14.875Z,2.20
2022-10-22T18:13:59.227Z,2.00
2022-10-22T18:16:42.091Z,2.08
2022-10-22T18:19:25.293Z,1.90
2022-10-22T18:22:08.344Z,2.20
2022-10-22T18:24:51.147Z,2.00
2022-10-22T18:27:34.412Z,2.17
2022-10-22T18:30:18.620Z,2.30
2022-10-22T18:33:01.489Z,2.05
2022-10-22T18:35:44.182Z,1.92
2022-10-22T18:38:27.360Z,1.92
2022-10-22T18:41:14.319Z,2.30
2022-10-22T18:43:58.030Z,2.15
2022-10-22T18:46:42.211Z,2.20
2022-10-22T18:49:24.865Z,2.28
2022-10-22T18:52:07.573Z,2.20
2022-10-22T18:54:50.279Z,2.63
2022-10-22T18:57:33.924Z,2.20
2022-10-22T19:00:17.240Z,2.50
2022-10-22T19:03:03.343Z,2.40
2022-10-22T19:05:47.255Z,2.75
2022-10-22T19:08:30.147Z,2.30
2022-10-22T19:11:14.406Z,1.90
2022-10-22T19:13:57.519Z,2.22
2022-10-22T19:16:40.221Z,2.40
2022-10-22T19:19:24.497Z,2.47
2022-10-22T19:22:07.126Z,2.80
2022-10-22T19:24:50.330Z,2.70
2022-10-22T19:27:33.057Z,2.72
2022-10-22T19:30:15.973Z,2.38
2022-10-22T19:32:58.590Z,2.78
2022-10-22T19:35:42.736Z,2.65
2022-10-22T19:38:29.704Z,2.50
2022-10-22T19:41:13.535Z,2.60
2022-10-22T19:43:57.020Z,2.70
2022-10-22T19:46:39.769Z,2.95
2022-10-22T19:49:23.139Z,2.72
2022-10-22T19:52:07.642Z,2.60
2022-10-22T19:54:50.340Z,2.97
2022-10-22T19:57:33.085Z,3.05
2022-10-22T20:00:15.811Z,3.10
2022-10-22T20:02:58.602Z,3.33
2022-10-22T20:05:42.686Z,3.30
2022-10-22T20:08:26.726Z,3.10
2022-10-22T20:11:11.342Z,3.42
2022-10-22T20:13:54.151Z,3.40
2022-10-22T20:16:37.494Z,3.28
2022-10-22T20:19:20.511Z,3.33
2022-10-22T20:22:03.169Z,3.03
2022-10-22T20:24:47.356Z,3.25
2022-10-22T20:27:30.232Z,2.78
2022-10-22T20:30:13.262Z,3.10
2022-10-22T20:32:56.142Z,3.10
2022-10-22T20:35:38.927Z,3.45
2022-10-22T20:38:21.557Z,3.28
2022-10-22T20:41:07.329Z,2.97
2022-10-22T20:43:50.780Z,3.22
2022-10-22T20:46:33.660Z,3.20
2022-10-22T20:49:17.317Z,2.95
2022-10-22T20:52:00.024Z,3.20
2022-10-22T20:54:44.150Z,3.08
2022-10-22T20:57:28.219Z,2.97
2022-10-22T21:00:11.398Z,2.92
2022-10-22T21:02:54.213Z,3.17
2022-10-22T21:05:36.846Z,3.10
2022-10-22T21:08:19.459Z,2.97
2022-10-22T21:11:02.096Z,2.90
2022-10-22T21:13:46.095Z,3.10
2022-10-22T21:16:28.806Z,3.15
2022-10-22T21:19:11.495Z,2.75
2022-10-22T21:21:54.398Z,2.65
2022-10-22T21:24:37.052Z,2.85
2022-10-22T21:27:19.687Z,2.78
2022-10-22T21:30:03.814Z,2.72
2022-10-22T21:32:46.450Z,2.78
2022-10-22T21:35:29.078Z,2.55
2022-10-22T21:38:11.801Z,2.65
2022-10-22T21:40:54.379Z,2.50
2022-10-22T21:43:38.287Z,2.60
2022-10-22T21:46:22.981Z,3.00
2022-10-22T21:49:05.719Z,2.90
2022-10-22T21:51:48.447Z,2.97
2022-10-22T21:54:31.255Z,2.65
2022-10-22T21:57:13.964Z,2.92
2022-10-22T21:59:56.600Z,2.75
2022-10-22T22:02:40.821Z,3.00
2022-10-22T22:05:23.749Z,3.08
2022-10-22T22:08:06.722Z,3.15
2022-10-22T22:10:49.370Z,3.15
2022-10-22T22:13:32.362Z,2.90
2022-10-22T22:16:16.768Z,3.15
2022-10-22T22:19:01.745Z,2.78
2022-10-22T22:21:44.418Z,3.00
2022-10-22T22:24:27.470Z,2.95
2022-10-22T22:27:10.196Z,3.00
2022-10-22T22:29:54.510Z,2.95
2022-10-22T22:32:37.247Z,2.92
2022-10-22T22:35:21.707Z,3.40
2022-10-22T22:38:05.150Z,3.17
2022-10-22T22:40:48.056Z,3.20
2022-10-22T22:43:30.750Z,3.10
2022-10-22T22:46:13.416Z,3.08
2022-10-22T22:48:56.131Z,3.10
2022-10-22T22:51:40.098Z,3.00
2022-10-22T22:54:22.743Z,3.22
2022-10-22T22:57:05.585Z,3.25
2022-10-22T22:59:50.442Z,3.00
2022-10-22T23:02:33.061Z,3.28
2022-10-22T23:05:15.738Z,3.28
2022-10-22T23:07:59.734Z,3.08
2022-10-22T23:10:42.385Z,3.53
2022-10-22T23:13:24.994Z,3.50
2022-10-22T23:16:08.413Z,3.58
2022-10-22T23:18:51.336Z,3.63
2022-10-22T23:21:35.108Z,3.22
2022-10-22T23:24:20.389Z,3.42
2022-10-22T23:27:04.136Z,3.97
2022-10-22T23:29:46.775Z,3.35
2022-10-22T23:32:29.348Z,3.50
2022-10-22T23:35:12.047Z,3.58
2022-10-22T23:37:54.687Z,3.90
2022-10-22T23:40:38.647Z,3.03
2022-10-22T23:43:21.271Z,3.65
2022-10-22T23:46:03.948Z,3.55
2022-10-22T23:48:46.568Z,3.88
2022-10-22T23:51:29.405Z,3.55
2022-10-22T23:54:13.319Z,3.90
2022-10-22T23:56:57.309Z,3.47
2022-10-22T23:59:40.019Z,3.58
